sensor_id;sensor_type;location;lat;lon;timestamp;temperature;humidity
13344;DHT22;6741;48.964;9.406;2023-03-04T00:01:37;-1.00;99.90
13344;DHT22;6741;48.964;9.406;2023-03-04T00:04:04;-1.00;99.90
13344;DHT22;6741;48.964;9.406;2023-03-04T00:06:31;-1.10;99.90
13344;DHT22;6741;48.964;9.406;2023-03-04T00:08:58;-1.20;99.90
13344;DHT22;6741;48.964;9.406;2023-03-04T00:11:25;-1.10;99.90
13344;DHT22;6741;48.964;9.406;2023-03-04T00:13:52;-1.00;99.90
13344;DHT22;6741;48.964;9.406;2023-03-04T00:16:19;-1.00;99.90
13344;DHT22;6741;48.964;9.406;2023-03-04T00:18:48;-1.00;99.90
13344;DHT22;6741;48.964;9.406;2023-03-04T00:21:14;-1.00;99.90
13344;DHT22;6741;48.964;9.406;2023-03-04T00:23:41;-1.00;99.90
13344;DHT22;6741;48.964;9.406;2023-03-04T00:26:08;-1.00;99.90
13344;DHT22;6741;48.964;9.406;2023-03-04T00:28:35;-1.10;99.90
13344;DHT22;6741;48.964;9.406;2023-03-04T00:31:04;-1.00;99.90
13344;DHT22;6741;48.964;9.406;2023-03-04T00:33:31;-1.10;99.90
13344;DHT22;6741;48.964;9.406;2023-03-04T00:35:59;-1.20;99.90
13344;DHT22;6741;48.964;9.406;2023-03-04T00:38:27;-1.30;99.90
13344;DHT22;6741;48.964;9.406;2023-03-04T00:40:54;-1.40;99.90
13344;DHT22;6741;48.964;9.406;2023-03-04T00:43:21;-1.30;99.90
13344;DHT22;6741;48.964;9.406;2023-03-04T00:45:48;-1.30;99.90
13344;DHT22;6741;48.964;9.406;2023-03-04T00:48:15;-1.40;99.90
13344;DHT22;6741;48.964;9.406;2023-03-04T00:50:42;-1.40;99.90
13344;DHT22;6741;48.964;9.406;2023-03-04T00:53:11;-1.40;99.90
13344;DHT22;6741;48.964;9.406;2023-03-04T00:55:38;-1.20;99.90
13344;DHT22;6741;48.964;9.406;2023-03-04T00:58:05;-1.20;99.90
13344;DHT22;6741;48.964;9.406;2023-03-04T01:00:32;-1.30;99.90
13344;DHT22;6741;48.964;9.406;2023-03-04T01:02:59;-1.40;99.90
13344;DHT22;6741;48.964;9.406;2023-03-04T01:05:26;-1.40;99.90
13344;DHT22;6741;48.964;9.406;2023-03-04T01:07:53;-1.30;99.90
13344;DHT22;6741;48.964;9.406;2023-03-04T01:10:21;-1.30;99.90
13344;DHT22;6741;48.964;9.406;2023-03-04T01:12:48;-1.30;99.90
13344;DHT22;6741;48.964;9.406;2023-03-04T01:15:15;-1.30;99.90
13344;DHT22;6741;48.964;9.406;2023-03-04T01:17:42;-1.40;99.90
13344;DHT22;6741;48.964;9.406;2023-03-04T01:20:11;-1.40;99.90
13344;DHT22;6741;48.964;9.406;2023-03-04T01:22:38;-1.40;99.90
13344;DHT22;6741;48.964;9.406;2023-03-04T01:25:06;-1.50;99.90
13344;DHT22;6741;48.964;9.406;2023-03-04T01:27:34;-1.50;99.90
13344;DHT22;6741;48.964;9.406;2023-03-04T01:30:01;-1.50;99.90
13344;DHT22;6741;48.964;9.406;2023-03-04T01:32:28;-1.60;99.90
13344;DHT22;6741;48.964;9.406;2023-03-04T01:34:55;-1.60;99.90
13344;DHT22;6741;48.964;9.406;2023-03-04T01:37:22;-1.60;99.90
13344;DHT22;6741;48.964;9.406;2023-03-04T01:39:49;-1.70;99.90
13344;DHT22;6741;48.964;9.406;2023-03-04T01:42:17;-1.70;99.90
13344;DHT22;6741;48.964;9.406;2023-03-04T01:44:47;-1.70;99.90
13344;DHT22;6741;48.964;9.406;2023-03-04T01:47:15;-1.70;99.90
13344;DHT22;6741;48.964;9.406;2023-03-04T01:49:42;-1.70;99.90
13344;DHT22;6741;48.964;9.406;2023-03-04T01:52:11;-1.70;99.90
13344;DHT22;6741;48.964;9.406;2023-03-04T01:54:38;-1.70;99.90
13344;DHT22;6741;48.964;9.406;2023-03-04T01:57:15;-1.80;99.90
13344;DHT22;6741;48.964;9.406;2023-03-04T01:59:43;-1.90;99.90
13344;DHT22;6741;48.964;9.406;2023-03-04T02:02:12;-1.90;99.90
13344;DHT22;6741;48.964;9.406;2023-03-04T02:04:40;-1.90;99.90
13344;DHT22;6741;48.964;9.406;2023-03-04T02:07:08;-1.90;99.90
13344;DHT22;6741;48.964;9.406;2023-03-04T02:09:35;-1.90;99.90
13344;DHT22;6741;48.964;9.406;2023-03-04T02:12:02;-2.10;99.90
13344;DHT22;6741;48.964;9.406;2023-03-04T02:14:30;-2.10;99.90
13344;DHT22;6741;48.964;9.406;2023-03-04T02:16:57;-2.10;99.90
13344;DHT22;6741;48.964;9.406;2023-03-04T02:19:35;-2.10;99.90
13344;DHT22;6741;48.964;9.406;2023-03-04T02:22:04;-2.10;99.90
13344;DHT22;6741;48.964;9.406;2023-03-04T02:24:35;-2.20;99.90
13344;DHT22;6741;48.964;9.406;2023-03-04T02:27:06;-2.20;99.90
13344;DHT22;6741;48.964;9.406;2023-03-04T02:29:33;-2.30;99.90
13344;DHT22;6741;48.964;9.406;2023-03-04T02:32:00;-2.30;99.90
13344;DHT22;6741;48.964;9.406;2023-03-04T02:34:29;-2.20;99.90
13344;DHT22;6741;48.964;9.406;2023-03-04T02:36:57;-2.20;99.90
13344;DHT22;6741;48.964;9.406;2023-03-04T02:39:30;-2.30;99.90
13344;DHT22;6741;48.964;9.406;2023-03-04T02:41:58;-2.30;99.90
13344;DHT22;6741;48.964;9.406;2023-03-04T02:44:28;-2.30;99.90
13344;DHT22;6741;48.964;9.406;2023-03-04T02:46:55;-2.40;99.90
13344;DHT22;6741;48.964;9.406;2023-03-04T02:49:24;-2.40;99.90
13344;DHT22;6741;48.964;9.406;2023-03-04T02:51:52;-2.50;99.90
13344;DHT22;6741;48.964;9.406;2023-03-04T02:54:21;-2.40;99.90
13344;DHT22;6741;48.964;9.406;2023-03-04T02:56:50;-2.40;99.90
13344;DHT22;6741;48.964;9.406;2023-03-04T02:59:18;-2.40;99.90
13344;DHT22;6741;48.964;9.406;2023-03-04T03:01:47;-2.40;99.90
13344;DHT22;6741;48.964;9.406;2023-03-04T03:04:14;-2.40;99.90
13344;DHT22;6741;48.964;9.406;2023-03-04T03:06:42;-2.30;99.90
13344;DHT22;6741;48.964;9.406;2023-03-04T03:09:09;-2.40;99.90
13344;DHT22;6741;48.964;9.406;2023-03-04T03:11:36;-2.40;99.90
13344;DHT22;6741;48.964;9.406;2023-03-04T03:14:03;-2.40;99.90
13344;DHT22;6741;48.964;9.406;2023-03-04T03:16:30;-2.50;99.90
13344;DHT22;6741;48.964;9.406;2023-03-04T03:18:59;-2.60;99.90
13344;DHT22;6741;48.964;9.406;2023-03-04T03:21:26;-2.70;99.90
13344;DHT22;6741;48.964;9.406;2023-03-04T03:23:53;-2.70;99.90
13344;DHT22;6741;48.964;9.406;2023-03-04T03:26:20;-2.70;99.90
13344;DHT22;6741;48.964;9.406;2023-03-04T03:28:47;-2.60;99.90
13344;DHT22;6741;48.964;9.406;2023-03-04T03:31:14;-2.60;99.90
13344;DHT22;6741;48.964;9.406;2023-03-04T03:33:41;-2.70;99.90
13344;DHT22;6741;48.964;9.406;2023-03-04T03:36:09;-2.80;99.90
13344;DHT22;6741;48.964;9.406;2023-03-04T03:38:36;-2.90;99.90
13344;DHT22;6741;48.964;9.406;2023-03-04T03:41:04;-2.90;99.90
13344;DHT22;6741;48.964;9.406;2023-03-04T03:43:30;-2.80;99.90
13344;DHT22;6741;48.964;9.406;2023-03-04T03:45:57;-2.90;99.90
13344;DHT22;6741;48.964;9.406;2023-03-04T03:48:25;-2.90;99.90
13344;DHT22;6741;48.964;9.406;2023-03-04T03:50:52;-2.90;99.90
13344;DHT22;6741;48.964;9.406;2023-03-04T03:53:20;-2.90;99.90
13344;DHT22;6741;48.964;9.406;2023-03-04T03:55:47;-2.90;99.90
13344;DHT22;6741;48.964;9.406;2023-03-04T03:58:14;-3.00;99.90
13344;DHT22;6741;48.964;9.406;2023-03-04T04:00:41;-3.00;99.90
13344;DHT22;6741;48.964;9.406;2023-03-04T04:03:10;-3.00;99.90
13344;DHT22;6741;48.964;9.406;2023-03-04T04:05:39;-3.00;99.90
13344;DHT22;6741;48.964;9.406;2023-03-04T04:08:06;-3.10;99.90
13344;DHT22;6741;48.964;9.406;2023-03-04T04:10:34;-3.10;99.90
13344;DHT22;6741;48.964;9.406;2023-03-04T04:13:01;-3.10;99.90
13344;DHT22;6741;48.964;9.406;2023-03-04T04:15:28;-3.10;99.90
13344;DHT22;6741;48.964;9.406;2023-03-04T04:17:55;-3.10;99.90
13344;DHT22;6741;48.964;9.406;2023-03-04T04:20:22;-3.10;99.90
13344;DHT22;6741;48.964;9.406;2023-03-04T04:22:48;-3.10;99.90
13344;DHT22;6741;48.964;9.406;2023-03-04T04:25:16;-3.10;99.90
13344;DHT22;6741;48.964;9.406;2023-03-04T04:27:44;-3.10;99.90
13344;DHT22;6741;48.964;9.406;2023-03-04T04:30:12;-3.20;99.90
13344;DHT22;6741;48.964;9.406;2023-03-04T04:32:39;-3.20;99.90
13344;DHT22;6741;48.964;9.406;2023-03-04T04:35:07;-3.10;99.90
13344;DHT22;6741;48.964;9.406;2023-03-04T04:37:34;-3.10;99.90
13344;DHT22;6741;48.964;9.406;2023-03-04T04:40:01;-3.00;99.90
13344;DHT22;6741;48.964;9.406;2023-03-04T04:42:28;-3.10;99.90
13344;DHT22;6741;48.964;9.406;2023-03-04T04:44:56;-3.10;99.90
13344;DHT22;6741;48.964;9.406;2023-03-04T04:47:23;-3.00;99.90
13344;DHT22;6741;48.964;9.406;2023-03-04T04:49:50;-3.10;99.90
13344;DHT22;6741;48.964;9.406;2023-03-04T04:52:17;-3.20;99.90
13344;DHT22;6741;48.964;9.406;2023-03-04T04:54:44;-3.30;99.90
13344;DHT22;6741;48.964;9.406;2023-03-04T04:57:11;-3.40;99.90
13344;DHT22;6741;48.964;9.406;2023-03-04T04:59:38;-3.50;99.90
13344;DHT22;6741;48.964;9.406;2023-03-04T05:02:06;-3.40;99.90
13344;DHT22;6741;48.964;9.406;2023-03-04T05:04:33;-3.40;99.90
13344;DHT22;6741;48.964;9.406;2023-03-04T05:07:00;-3.40;99.90
13344;DHT22;6741;48.964;9.406;2023-03-04T05:09:27;-3.40;99.90
13344;DHT22;6741;48.964;9.406;2023-03-04T05:11:54;-3.40;99.90
13344;DHT22;6741;48.964;9.406;2023-03-04T05:14:21;-3.40;99.90
13344;DHT22;6741;48.964;9.406;2023-03-04T05:16:48;-3.40;99.90
13344;DHT22;6741;48.964;9.406;2023-03-04T05:19:18;-3.40;99.90
13344;DHT22;6741;48.964;9.406;2023-03-04T05:21:45;-3.50;99.90
13344;DHT22;6741;48.964;9.406;2023-03-04T05:24:12;-3.50;99.90
13344;DHT22;6741;48.964;9.406;2023-03-04T05:26:39;-3.40;99.90
13344;DHT22;6741;48.964;9.406;2023-03-04T05:29:06;-3.50;99.90
13344;DHT22;6741;48.964;9.406;2023-03-04T05:31:33;-3.50;99.90
13344;DHT22;6741;48.964;9.406;2023-03-04T05:34:00;-3.60;99.90
13344;DHT22;6741;48.964;9.406;2023-03-04T05:36:28;-3.60;99.90
13344;DHT22;6741;48.964;9.406;2023-03-04T05:38:55;-3.60;99.90
13344;DHT22;6741;48.964;9.406;2023-03-04T05:41:22;-3.60;99.90
13344;DHT22;6741;48.964;9.406;2023-03-04T05:43:50;-3.50;99.90
13344;DHT22;6741;48.964;9.406;2023-03-04T05:46:18;-3.50;99.90
13344;DHT22;6741;48.964;9.406;2023-03-04T05:48:50;-3.40;99.90
13344;DHT22;6741;48.964;9.406;2023-03-04T05:51:18;-3.30;99.90
13344;DHT22;6741;48.964;9.406;2023-03-04T05:53:46;-3.30;99.90
13344;DHT22;6741;48.964;9.406;2023-03-04T05:56:15;-3.30;99.90
13344;DHT22;6741;48.964;9.406;2023-03-04T05:58:43;-3.20;99.90
13344;DHT22;6741;48.964;9.406;2023-03-04T06:01:12;-3.20;99.90
13344;DHT22;6741;48.964;9.406;2023-03-04T06:03:39;-3.10;99.90
13344;DHT22;6741;48.964;9.406;2023-03-04T06:06:07;-3.10;99.90
13344;DHT22;6741;48.964;9.406;2023-03-04T06:08:34;-3.00;99.90
13344;DHT22;6741;48.964;9.406;2023-03-04T06:11:03;-3.10;99.90
13344;DHT22;6741;48.964;9.406;2023-03-04T06:13:30;-2.90;99.90
13344;DHT22;6741;48.964;9.406;2023-03-04T06:15:58;-2.90;99.90
13344;DHT22;6741;48.964;9.406;2023-03-04T06:18:26;-2.90;99.90
13344;DHT22;6741;48.964;9.406;2023-03-04T06:20:55;-2.80;99.90
13344;DHT22;6741;48.964;9.406;2023-03-04T06:23:23;-2.70;99.90
13344;DHT22;6741;48.964;9.406;2023-03-04T06:25:51;-2.70;99.90
13344;DHT22;6741;48.964;9.406;2023-03-04T06:28:19;-2.70;99.90
13344;DHT22;6741;48.964;9.406;2023-03-04T06:30:46;-2.60;99.90
13344;DHT22;6741;48.964;9.406;2023-03-04T06:33:13;-2.50;99.90
13344;DHT22;6741;48.964;9.406;2023-03-04T06:35:40;-2.50;99.90
13344;DHT22;6741;48.964;9.406;2023-03-04T06:38:07;-2.40;99.90
13344;DHT22;6741;48.964;9.406;2023-03-04T06:40:34;-2.40;99.90
13344;DHT22;6741;48.964;9.406;2023-03-04T06:43:01;-2.30;99.90
13344;DHT22;6741;48.964;9.406;2023-03-04T06:45:29;-2.10;99.90
13344;DHT22;6741;48.964;9.406;2023-03-04T06:47:56;-2.10;99.90
13344;DHT22;6741;48.964;9.406;2023-03-04T06:50:23;-2.00;99.90
13344;DHT22;6741;48.964;9.406;2023-03-04T06:52:50;-2.00;99.90
13344;DHT22;6741;48.964;9.406;2023-03-04T06:55:17;-2.00;99.90
13344;DHT22;6741;48.964;9.406;2023-03-04T06:57:44;-1.90;99.90
13344;DHT22;6741;48.964;9.406;2023-03-04T07:00:13;-1.90;99.90
13344;DHT22;6741;48.964;9.406;2023-03-04T07:02:41;-1.90;99.90
13344;DHT22;6741;48.964;9.406;2023-03-04T07:05:09;-1.80;99.90
13344;DHT22;6741;48.964;9.406;2023-03-04T07:07:37;-1.70;99.90
13344;DHT22;6741;48.964;9.406;2023-03-04T07:10:04;-1.60;99.90
13344;DHT22;6741;48.964;9.406;2023-03-04T07:12:31;-1.40;99.90
13344;DHT22;6741;48.964;9.406;2023-03-04T07:14:58;-1.40;99.90
13344;DHT22;6741;48.964;9.406;2023-03-04T07:17:26;-1.30;99.90
13344;DHT22;6741;48.964;9.406;2023-03-04T07:19:54;-1.30;99.90
13344;DHT22;6741;48.964;9.406;2023-03-04T07:22:21;-1.30;99.90
13344;DHT22;6741;48.964;9.406;2023-03-04T07:24:48;-1.20;99.90
13344;DHT22;6741;48.964;9.406;2023-03-04T07:27:15;-1.10;99.90
13344;DHT22;6741;48.964;9.406;2023-03-04T07:29:42;-1.10;99.90
13344;DHT22;6741;48.964;9.406;2023-03-04T07:32:10;-1.00;99.90
13344;DHT22;6741;48.964;9.406;2023-03-04T07:34:37;-1.00;99.90
13344;DHT22;6741;48.964;9.406;2023-03-04T07:37:05;-1.00;99.90
13344;DHT22;6741;48.964;9.406;2023-03-04T07:39:32;-1.10;99.90
13344;DHT22;6741;48.964;9.406;2023-03-04T07:41:59;-1.40;99.90
13344;DHT22;6741;48.964;9.406;2023-03-04T07:44:26;-1.50;99.90
13344;DHT22;6741;48.964;9.406;2023-03-04T07:46:53;-1.80;99.90
13344;DHT22;6741;48.964;9.406;2023-03-04T07:49:20;-2.10;99.90
13344;DHT22;6741;48.964;9.406;2023-03-04T07:51:47;-2.10;99.90
13344;DHT22;6741;48.964;9.406;2023-03-04T07:54:15;-1.70;99.90
13344;DHT22;6741;48.964;9.406;2023-03-04T07:56:46;-1.20;99.90
13344;DHT22;6741;48.964;9.406;2023-03-04T07:59:13;-1.00;99.90
13344;DHT22;6741;48.964;9.406;2023-03-04T08:01:40;-0.90;99.90
13344;DHT22;6741;48.964;9.406;2023-03-04T08:04:07;-0.70;99.90
13344;DHT22;6741;48.964;9.406;2023-03-04T08:06:34;-0.80;99.90
13344;DHT22;6741;48.964;9.406;2023-03-04T08:09:02;-0.80;99.90
13344;DHT22;6741;48.964;9.406;2023-03-04T08:11:32;-0.80;99.90
13344;DHT22;6741;48.964;9.406;2023-03-04T08:14:00;-0.70;99.90
13344;DHT22;6741;48.964;9.406;2023-03-04T08:16:27;-0.70;99.90
13344;DHT22;6741;48.964;9.406;2023-03-04T08:18:56;-0.70;99.90
13344;DHT22;6741;48.964;9.406;2023-03-04T08:21:24;-0.60;99.90
13344;DHT22;6741;48.964;9.406;2023-03-04T08:23:52;-0.60;99.90
13344;DHT22;6741;48.964;9.406;2023-03-04T08:26:22;-0.60;99.90
13344;DHT22;6741;48.964;9.406;2023-03-04T08:28:51;-0.40;99.90
13344;DHT22;6741;48.964;9.406;2023-03-04T08:31:18;0.00;99.90
13344;DHT22;6741;48.964;9.406;2023-03-04T08:33:46;-0.20;99.90
13344;DHT22;6741;48.964;9.406;2023-03-04T08:36:13;-0.30;99.90
13344;DHT22;6741;48.964;9.406;2023-03-04T08:38:41;-0.40;99.90
13344;DHT22;6741;48.964;9.406;2023-03-04T08:41:08;-0.40;99.90
13344;DHT22;6741;48.964;9.406;2023-03-04T08:43:35;-0.30;99.90
13344;DHT22;6741;48.964;9.406;2023-03-04T08:46:04;-0.20;99.90
13344;DHT22;6741;48.964;9.406;2023-03-04T08:48:31;-0.20;99.90
13344;DHT22;6741;48.964;9.406;2023-03-04T08:50:58;-0.10;99.90
13344;DHT22;6741;48.964;9.406;2023-03-04T08:53:25;0.00;99.90
13344;DHT22;6741;48.964;9.406;2023-03-04T08:55:52;0.30;99.90
13344;DHT22;6741;48.964;9.406;2023-03-04T08:58:20;0.30;99.90
13344;DHT22;6741;48.964;9.406;2023-03-04T09:00:48;0.40;99.90
13344;DHT22;6741;48.964;9.406;2023-03-04T09:03:17;0.40;99.90
13344;DHT22;6741;48.964;9.406;2023-03-04T09:05:45;0.40;99.90
13344;DHT22;6741;48.964;9.406;2023-03-04T09:08:13;0.50;99.90
13344;DHT22;6741;48.964;9.406;2023-03-04T09:10:40;0.60;99.90
13344;DHT22;6741;48.964;9.406;2023-03-04T09:13:07;0.60;99.90
13344;DHT22;6741;48.964;9.406;2023-03-04T09:15:41;0.50;99.90
13344;DHT22;6741;48.964;9.406;2023-03-04T09:18:09;0.70;99.90
13344;DHT22;6741;48.964;9.406;2023-03-04T09:20:38;0.80;99.90
13344;DHT22;6741;48.964;9.406;2023-03-04T09:23:07;0.60;99.90
13344;DHT22;6741;48.964;9.406;2023-03-04T09:25:35;0.70;99.90
13344;DHT22;6741;48.964;9.406;2023-03-04T09:28:02;0.70;99.90
13344;DHT22;6741;48.964;9.406;2023-03-04T09:30:30;0.60;99.90
13344;DHT22;6741;48.964;9.406;2023-03-04T09:32:57;0.60;99.90
13344;DHT22;6741;48.964;9.406;2023-03-04T09:35:24;0.60;99.90
13344;DHT22;6741;48.964;9.406;2023-03-04T09:37:52;0.70;99.90
13344;DHT22;6741;48.964;9.406;2023-03-04T09:40:21;0.80;99.90
13344;DHT22;6741;48.964;9.406;2023-03-04T09:42:51;0.90;99.90
13344;DHT22;6741;48.964;9.406;2023-03-04T09:45:21;0.90;99.90
13344;DHT22;6741;48.964;9.406;2023-03-04T09:47:51;1.00;99.90
13344;DHT22;6741;48.964;9.406;2023-03-04T09:50:20;0.90;99.90
13344;DHT22;6741;48.964;9.406;2023-03-04T09:53:00;0.90;99.90
13344;DHT22;6741;48.964;9.406;2023-03-04T09:55:33;0.90;99.90
13344;DHT22;6741;48.964;9.406;2023-03-04T09:58:06;1.00;99.90
13344;DHT22;6741;48.964;9.406;2023-03-04T10:00:38;1.00;99.90
13344;DHT22;6741;48.964;9.406;2023-03-04T10:03:13;1.10;99.90
13344;DHT22;6741;48.964;9.406;2023-03-04T10:05:45;1.10;99.90
13344;DHT22;6741;48.964;9.406;2023-03-04T10:08:39;1.10;99.90
13344;DHT22;6741;48.964;9.406;2023-03-04T10:11:13;1.30;99.90
13344;DHT22;6741;48.964;9.406;2023-03-04T10:13:49;1.20;99.90
13344;DHT22;6741;48.964;9.406;2023-03-04T10:16:20;1.30;99.90
13344;DHT22;6741;48.964;9.406;2023-03-04T10:18:52;1.30;99.90
13344;DHT22;6741;48.964;9.406;2023-03-04T10:21:22;1.20;99.90
13344;DHT22;6741;48.964;9.406;2023-03-04T10:23:53;1.30;99.90
13344;DHT22;6741;48.964;9.406;2023-03-04T10:26:21;1.40;99.90
13344;DHT22;6741;48.964;9.406;2023-03-04T10:28:49;1.40;99.90
13344;DHT22;6741;48.964;9.406;2023-03-04T10:31:19;1.60;99.90
13344;DHT22;6741;48.964;9.406;2023-03-04T10:33:48;1.50;99.90
13344;DHT22;6741;48.964;9.406;2023-03-04T10:36:31;1.50;99.90
13344;DHT22;6741;48.964;9.406;2023-03-04T10:39:04;1.60;99.90
13344;DHT22;6741;48.964;9.406;2023-03-04T10:41:32;1.80;99.90
13344;DHT22;6741;48.964;9.406;2023-03-04T10:44:14;1.90;99.90
13344;DHT22;6741;48.964;9.406;2023-03-04T10:46:43;1.80;99.90
13344;DHT22;6741;48.964;9.406;2023-03-04T10:49:11;1.70;99.90
13344;DHT22;6741;48.964;9.406;2023-03-04T10:51:42;1.90;99.90
13344;DHT22;6741;48.964;9.406;2023-03-04T10:54:21;1.90;99.90
13344;DHT22;6741;48.964;9.406;2023-03-04T10:56:55;2.00;99.90
13344;DHT22;6741;48.964;9.406;2023-03-04T10:59:43;2.00;99.90
13344;DHT22;6741;48.964;9.406;2023-03-04T11:02:19;2.10;99.90
13344;DHT22;6741;48.964;9.406;2023-03-04T11:04:55;2.20;99.90
13344;DHT22;6741;48.964;9.406;2023-03-04T11:07:24;2.20;99.90
13344;DHT22;6741;48.964;9.406;2023-03-04T11:09:53;2.20;99.90
13344;DHT22;6741;48.964;9.406;2023-03-04T11:12:30;2.10;99.90
13344;DHT22;6741;48.964;9.406;2023-03-04T11:14:58;1.90;99.90
13344;DHT22;6741;48.964;9.406;2023-03-04T11:17:27;1.70;99.90
13344;DHT22;6741;48.964;9.406;2023-03-04T11:19:57;1.70;99.90
13344;DHT22;6741;48.964;9.406;2023-03-04T11:22:28;1.90;99.90
13344;DHT22;6741;48.964;9.406;2023-03-04T11:24:59;2.00;99.90
13344;DHT22;6741;48.964;9.406;2023-03-04T11:27:37;2.00;99.90
13344;DHT22;6741;48.964;9.406;2023-03-04T11:30:37;2.00;99.90
13344;DHT22;6741;48.964;9.406;2023-03-04T11:33:13;2.10;99.90
13344;DHT22;6741;48.964;9.406;2023-03-04T11:35:56;2.00;99.90
13344;DHT22;6741;48.964;9.406;2023-03-04T11:38:28;2.10;99.90
13344;DHT22;6741;48.964;9.406;2023-03-04T11:41:02;2.10;99.90
13344;DHT22;6741;48.964;9.406;2023-03-04T11:43:34;2.10;99.90
13344;DHT22;6741;48.964;9.406;2023-03-04T11:46:27;2.00;99.90
13344;DHT22;6741;48.964;9.406;2023-03-04T11:49:07;2.00;99.90
13344;DHT22;6741;48.964;9.406;2023-03-04T11:51:40;2.00;99.90
13344;DHT22;6741;48.964;9.406;2023-03-04T11:54:22;2.00;99.90
13344;DHT22;6741;48.964;9.406;2023-03-04T11:56:58;2.00;99.90
13344;DHT22;6741;48.964;9.406;2023-03-04T11:59:37;2.10;99.90
13344;DHT22;6741;48.964;9.406;2023-03-04T12:02:16;2.00;99.90
13344;DHT22;6741;48.964;9.406;2023-03-04T12:08:20;2.30;99.90
13344;DHT22;6741;48.964;9.406;2023-03-04T12:10:57;2.20;99.90
13344;DHT22;6741;48.964;9.406;2023-03-04T12:13:54;2.20;99.90
13344;DHT22;6741;48.964;9.406;2023-03-04T12:16:47;2.10;99.90
13344;DHT22;6741;48.964;9.406;2023-03-04T12:19:26;2.10;99.90
13344;DHT22;6741;48.964;9.406;2023-03-04T12:22:12;2.20;99.90
13344;DHT22;6741;48.964;9.406;2023-03-04T12:28:03;2.10;99.90
13344;DHT22;6741;48.964;9.406;2023-03-04T12:30:43;2.10;99.90
13344;DHT22;6741;48.964;9.406;2023-03-04T12:33:20;2.10;99.90
13344;DHT22;6741;48.964;9.406;2023-03-04T12:35:53;2.10;99.90
13344;DHT22;6741;48.964;9.406;2023-03-04T12:38:30;2.10;99.90
13344;DHT22;6741;48.964;9.406;2023-03-04T12:41:10;2.10;99.90
13344;DHT22;6741;48.964;9.406;2023-03-04T12:43:46;2.00;99.90
13344;DHT22;6741;48.964;9.406;2023-03-04T12:46:34;1.80;99.90
13344;DHT22;6741;48.964;9.406;2023-03-04T12:49:17;1.90;99.90
13344;DHT22;6741;48.964;9.406;2023-03-04T12:51:53;2.10;99.90
13344;DHT22;6741;48.964;9.406;2023-03-04T12:54:30;2.10;99.90
13344;DHT22;6741;48.964;9.406;2023-03-04T12:57:00;2.00;99.90
13344;DHT22;6741;48.964;9.406;2023-03-04T12:59:31;1.80;99.90
13344;DHT22;6741;48.964;9.406;2023-03-04T13:02:17;2.00;99.90
13344;DHT22;6741;48.964;9.406;2023-03-04T13:04:53;2.00;99.90
13344;DHT22;6741;48.964;9.406;2023-03-04T13:07:34;2.10;99.90
13344;DHT22;6741;48.964;9.406;2023-03-04T13:10:07;2.10;99.90
13344;DHT22;6741;48.964;9.406;2023-03-04T13:12:46;2.10;99.90
13344;DHT22;6741;48.964;9.406;2023-03-04T13:15:32;2.10;99.90
13344;DHT22;6741;48.964;9.406;2023-03-04T13:18:02;2.10;99.90
13344;DHT22;6741;48.964;9.406;2023-03-04T13:20:37;2.00;99.90
13344;DHT22;6741;48.964;9.406;2023-03-04T13:23:24;2.00;99.90
13344;DHT22;6741;48.964;9.406;2023-03-04T13:26:15;2.00;99.90
13344;DHT22;6741;48.964;9.406;2023-03-04T13:28:43;1.90;99.90
13344;DHT22;6741;48.964;9.406;2023-03-04T13:31:20;1.70;99.90
13344;DHT22;6741;48.964;9.406;2023-03-04T13:34:01;1.70;99.90
13344;DHT22;6741;48.964;9.406;2023-03-04T13:36:54;1.80;99.90
13344;DHT22;6741;48.964;9.406;2023-03-04T13:39:32;2.00;99.90
13344;DHT22;6741;48.964;9.406;2023-03-04T13:42:00;1.80;99.90
13344;DHT22;6741;48.964;9.406;2023-03-04T13:47:19;1.90;99.90
13344;DHT22;6741;48.964;9.406;2023-03-04T13:49:48;1.90;99.90
13344;DHT22;6741;48.964;9.406;2023-03-04T13:52:37;2.00;99.90
13344;DHT22;6741;48.964;9.406;2023-03-04T13:55:34;1.90;99.90
13344;DHT22;6741;48.964;9.406;2023-03-04T13:58:02;1.80;99.90
13344;DHT22;6741;48.964;9.406;2023-03-04T14:00:46;1.90;99.90
13344;DHT22;6741;48.964;9.406;2023-03-04T14:03:19;2.00;99.90
13344;DHT22;6741;48.964;9.406;2023-03-04T14:06:08;1.90;99.90
13344;DHT22;6741;48.964;9.406;2023-03-04T14:08:36;1.90;99.90
13344;DHT22;6741;48.964;9.406;2023-03-04T14:11:03;1.90;99.90
13344;DHT22;6741;48.964;9.406;2023-03-04T14:13:30;1.90;99.90
13344;DHT22;6741;48.964;9.406;2023-03-04T14:15:58;1.90;99.90
13344;DHT22;6741;48.964;9.406;2023-03-04T14:18:25;1.90;99.90
13344;DHT22;6741;48.964;9.406;2023-03-04T14:20:57;2.00;99.90
13344;DHT22;6741;48.964;9.406;2023-03-04T14:23:27;2.00;99.90
13344;DHT22;6741;48.964;9.406;2023-03-04T14:26:09;2.20;99.90
13344;DHT22;6741;48.964;9.406;2023-03-04T14:28:45;2.20;99.90
13344;DHT22;6741;48.964;9.406;2023-03-04T14:31:18;2.30;99.90
13344;DHT22;6741;48.964;9.406;2023-03-04T14:33:48;2.30;99.90
13344;DHT22;6741;48.964;9.406;2023-03-04T14:36:19;2.20;99.90
13344;DHT22;6741;48.964;9.406;2023-03-04T14:38:51;2.20;99.90
13344;DHT22;6741;48.964;9.406;2023-03-04T14:41:22;2.20;99.90
13344;DHT22;6741;48.964;9.406;2023-03-04T14:43:55;2.20;99.90
13344;DHT22;6741;48.964;9.406;2023-03-04T14:46:31;2.10;99.90
13344;DHT22;6741;48.964;9.406;2023-03-04T14:49:00;2.20;99.90
13344;DHT22;6741;48.964;9.406;2023-03-04T14:51:37;2.20;99.90
13344;DHT22;6741;48.964;9.406;2023-03-04T14:54:21;2.10;99.90
13344;DHT22;6741;48.964;9.406;2023-03-04T14:56:50;2.40;99.90
13344;DHT22;6741;48.964;9.406;2023-03-04T14:59:17;2.30;99.90
13344;DHT22;6741;48.964;9.406;2023-03-04T15:01:53;2.40;99.90
13344;DHT22;6741;48.964;9.406;2023-03-04T15:04:20;2.40;99.90
13344;DHT22;6741;48.964;9.406;2023-03-04T15:06:51;2.30;99.90
13344;DHT22;6741;48.964;9.406;2023-03-04T15:09:20;2.20;99.90
13344;DHT22;6741;48.964;9.406;2023-03-04T15:11:49;2.20;99.90
13344;DHT22;6741;48.964;9.406;2023-03-04T15:14:42;2.10;99.90
13344;DHT22;6741;48.964;9.406;2023-03-04T15:17:23;2.20;99.90
13344;DHT22;6741;48.964;9.406;2023-03-04T15:19:58;2.10;99.90
13344;DHT22;6741;48.964;9.406;2023-03-04T15:22:26;2.10;99.90
13344;DHT22;6741;48.964;9.406;2023-03-04T15:24:54;2.20;99.90
13344;DHT22;6741;48.964;9.406;2023-03-04T15:27:21;2.10;99.90
13344;DHT22;6741;48.964;9.406;2023-03-04T15:29:50;2.10;99.90
13344;DHT22;6741;48.964;9.406;2023-03-04T15:32:21;2.00;99.90
13344;DHT22;6741;48.964;9.406;2023-03-04T15:34:48;2.10;99.90
13344;DHT22;6741;48.964;9.406;2023-03-04T15:37:19;2.20;99.90
13344;DHT22;6741;48.964;9.406;2023-03-04T15:39:48;2.20;99.90
13344;DHT22;6741;48.964;9.406;2023-03-04T15:42:15;2.30;99.90
13344;DHT22;6741;48.964;9.406;2023-03-04T15:44:42;2.30;99.90
13344;DHT22;6741;48.964;9.406;2023-03-04T15:47:09;2.10;99.90
13344;DHT22;6741;48.964;9.406;2023-03-04T15:49:38;2.10;99.90
13344;DHT22;6741;48.964;9.406;2023-03-04T15:52:06;2.00;99.90
13344;DHT22;6741;48.964;9.406;2023-03-04T15:54:33;2.10;99.90
13344;DHT22;6741;48.964;9.406;2023-03-04T15:57:04;2.10;99.90
13344;DHT22;6741;48.964;9.406;2023-03-04T15:59:33;2.10;99.90
13344;DHT22;6741;48.964;9.406;2023-03-04T16:02:00;2.10;99.90
13344;DHT22;6741;48.964;9.406;2023-03-04T16:04:27;2.10;99.90
13344;DHT22;6741;48.964;9.406;2023-03-04T16:06:54;2.20;99.90
13344;DHT22;6741;48.964;9.406;2023-03-04T16:09:23;2.20;99.90
13344;DHT22;6741;48.964;9.406;2023-03-04T16:11:51;2.20;99.90
13344;DHT22;6741;48.964;9.406;2023-03-04T16:14:22;2.20;99.90
13344;DHT22;6741;48.964;9.406;2023-03-04T16:16:49;2.20;99.90
13344;DHT22;6741;48.964;9.406;2023-03-04T16:19:16;2.20;99.90
13344;DHT22;6741;48.964;9.406;2023-03-04T16:21:43;2.20;99.90